METAR Data
IDs: Format: Raw Decoded Include TAF

Data at: 0818 UTC 18 Sep 2021

KRST 180754Z AUTO 13003KT 10SM CLR 06/04 A3023 RMK AO2 SLP240 T00610044
KRST 180654Z AUTO 00000KT 10SM CLR 07/04 A3023 RMK AO2 SLP239 T00670044
KRST 180554Z AUTO 36004KT 10SM CLR 11/04 A3023 RMK AO2 SLP239 T01060044 10178 20078 402170078 53001
KRST 180454Z AUTO 00000KT 10SM CLR 08/05 A3022 RMK AO2 SLP237 T00830050